sensor_id;sensor_type;location;lat;lon;timestamp;temperature;humidity
8408;DHT22;4241;48.452;9.216;2022-07-18T00:01:52;17.80;93.00
8408;DHT22;4241;48.452;9.216;2022-07-18T00:04:19;17.80;92.80
8408;DHT22;4241;48.452;9.216;2022-07-18T00:06:45;17.70;92.10
8408;DHT22;4241;48.452;9.216;2022-07-18T00:09:12;17.30;92.20
8408;DHT22;4241;48.452;9.216;2022-07-18T00:11:39;17.30;94.50
8408;DHT22;4241;48.452;9.216;2022-07-18T00:14:06;17.30;93.60
8408;DHT22;4241;48.452;9.216;2022-07-18T00:16:34;17.50;95.20
8408;DHT22;4241;48.452;9.216;2022-07-18T00:19:01;17.50;94.30
8408;DHT22;4241;48.452;9.216;2022-07-18T00:21:28;17.50;96.40
8408;DHT22;4241;48.452;9.216;2022-07-18T00:23:55;17.50;94.20
8408;DHT22;4241;48.452;9.216;2022-07-18T00:26:22;17.50;93.50
8408;DHT22;4241;48.452;9.216;2022-07-18T00:28:49;17.40;97.80
8408;DHT22;4241;48.452;9.216;2022-07-18T00:31:16;17.60;97.70
8408;DHT22;4241;48.452;9.216;2022-07-18T00:33:44;17.40;96.60
8408;DHT22;4241;48.452;9.216;2022-07-18T00:36:11;17.40;96.60
8408;DHT22;4241;48.452;9.216;2022-07-18T00:38:38;17.00;99.00
8408;DHT22;4241;48.452;9.216;2022-07-18T00:41:05;16.90;99.50
8408;DHT22;4241;48.452;9.216;2022-07-18T00:43:33;17.00;98.90
8408;DHT22;4241;48.452;9.216;2022-07-18T00:45:59;17.00;99.00
8408;DHT22;4241;48.452;9.216;2022-07-18T00:48:26;16.40;99.90
8408;DHT22;4241;48.452;9.216;2022-07-18T00:50:54;16.60;99.90
8408;DHT22;4241;48.452;9.216;2022-07-18T00:53:21;16.90;99.90
8408;DHT22;4241;48.452;9.216;2022-07-18T00:55:49;16.60;99.90
8408;DHT22;4241;48.452;9.216;2022-07-18T00:58:16;16.80;98.50
8408;DHT22;4241;48.452;9.216;2022-07-18T01:00:43;17.10;98.70
8408;DHT22;4241;48.452;9.216;2022-07-18T01:03:27;16.90;98.60
8408;DHT22;4241;48.452;9.216;2022-07-18T01:05:55;16.90;99.90
8408;DHT22;4241;48.452;9.216;2022-07-18T01:08:22;16.80;98.00
8408;DHT22;4241;48.452;9.216;2022-07-18T01:10:49;16.80;98.50
8408;DHT22;4241;48.452;9.216;2022-07-18T01:13:17;16.50;99.90
8408;DHT22;4241;48.452;9.216;2022-07-18T01:15:43;16.60;99.90
8408;DHT22;4241;48.452;9.216;2022-07-18T01:18:10;16.40;99.90
8408;DHT22;4241;48.452;9.216;2022-07-18T01:20:39;16.30;99.90
8408;DHT22;4241;48.452;9.216;2022-07-18T01:23:05;16.20;99.90
8408;DHT22;4241;48.452;9.216;2022-07-18T01:25:32;15.90;99.90
8408;DHT22;4241;48.452;9.216;2022-07-18T01:27:59;15.80;99.90
8408;DHT22;4241;48.452;9.216;2022-07-18T01:30:26;15.80;99.90
8408;DHT22;4241;48.452;9.216;2022-07-18T01:32:57;15.90;99.90
8408;DHT22;4241;48.452;9.216;2022-07-18T01:35:25;16.10;99.90
8408;DHT22;4241;48.452;9.216;2022-07-18T01:37:55;16.30;99.90
8408;DHT22;4241;48.452;9.216;2022-07-18T01:40:22;16.30;99.90
8408;DHT22;4241;48.452;9.216;2022-07-18T01:42:49;16.10;99.90
8408;DHT22;4241;48.452;9.216;2022-07-18T01:45:17;16.20;99.90
8408;DHT22;4241;48.452;9.216;2022-07-18T01:47:44;16.20;99.90
8408;DHT22;4241;48.452;9.216;2022-07-18T01:50:12;16.30;99.90
8408;DHT22;4241;48.452;9.216;2022-07-18T01:52:39;16.30;99.90
8408;DHT22;4241;48.452;9.216;2022-07-18T01:55:09;16.20;99.90
8408;DHT22;4241;48.452;9.216;2022-07-18T01:57:36;16.30;99.90
8408;DHT22;4241;48.452;9.216;2022-07-18T02:00:06;16.30;99.90
8408;DHT22;4241;48.452;9.216;2022-07-18T02:02:33;16.30;99.90
8408;DHT22;4241;48.452;9.216;2022-07-18T02:05:00;16.30;99.90
8408;DHT22;4241;48.452;9.216;2022-07-18T02:07:30;16.10;99.90
8408;DHT22;4241;48.452;9.216;2022-07-18T02:09:58;15.70;99.90
8408;DHT22;4241;48.452;9.216;2022-07-18T02:12:27;15.80;99.90
8408;DHT22;4241;48.452;9.216;2022-07-18T02:14:54;15.60;99.90
8408;DHT22;4241;48.452;9.216;2022-07-18T02:17:20;16.20;99.90
8408;DHT22;4241;48.452;9.216;2022-07-18T02:19:47;15.70;99.90
8408;DHT22;4241;48.452;9.216;2022-07-18T02:22:14;15.50;99.90
8408;DHT22;4241;48.452;9.216;2022-07-18T02:24:41;15.50;99.90
8408;DHT22;4241;48.452;9.216;2022-07-18T02:27:08;15.60;99.90
8408;DHT22;4241;48.452;9.216;2022-07-18T02:29:37;15.60;99.90
8408;DHT22;4241;48.452;9.216;2022-07-18T02:32:04;15.60;99.90
8408;DHT22;4241;48.452;9.216;2022-07-18T02:34:31;15.60;99.90
8408;DHT22;4241;48.452;9.216;2022-07-18T02:36:58;15.40;99.90
8408;DHT22;4241;48.452;9.216;2022-07-18T02:39:25;15.50;99.90
8408;DHT22;4241;48.452;9.216;2022-07-18T02:41:52;15.60;99.90
8408;DHT22;4241;48.452;9.216;2022-07-18T02:44:19;15.80;99.90
8408;DHT22;4241;48.452;9.216;2022-07-18T02:46:47;15.40;99.90
8408;DHT22;4241;48.452;9.216;2022-07-18T02:49:15;15.30;99.90
8408;DHT22;4241;48.452;9.216;2022-07-18T02:51:54;15.20;99.90
8408;DHT22;4241;48.452;9.216;2022-07-18T02:54:22;15.30;99.90
8408;DHT22;4241;48.452;9.216;2022-07-18T02:56:49;15.30;99.90
8408;DHT22;4241;48.452;9.216;2022-07-18T02:59:15;15.50;99.90
8408;DHT22;4241;48.452;9.216;2022-07-18T03:01:43;15.60;99.90
8408;DHT22;4241;48.452;9.216;2022-07-18T03:04:11;15.60;99.90
8408;DHT22;4241;48.452;9.216;2022-07-18T03:06:38;15.50;99.90
8408;DHT22;4241;48.452;9.216;2022-07-18T03:09:04;15.40;99.90
8408;DHT22;4241;48.452;9.216;2022-07-18T03:11:31;15.20;99.90
8408;DHT22;4241;48.452;9.216;2022-07-18T03:13:58;15.60;99.90
8408;DHT22;4241;48.452;9.216;2022-07-18T03:16:25;15.50;99.90
8408;DHT22;4241;48.452;9.216;2022-07-18T03:18:52;15.30;99.90
8408;DHT22;4241;48.452;9.216;2022-07-18T03:21:21;15.30;99.90
8408;DHT22;4241;48.452;9.216;2022-07-18T03:23:47;15.50;99.90
8408;DHT22;4241;48.452;9.216;2022-07-18T03:26:14;15.40;99.90
8408;DHT22;4241;48.452;9.216;2022-07-18T03:28:41;15.40;99.90
8408;DHT22;4241;48.452;9.216;2022-07-18T03:31:08;15.40;99.90
8408;DHT22;4241;48.452;9.216;2022-07-18T03:33:36;15.00;99.90
8408;DHT22;4241;48.452;9.216;2022-07-18T03:36:04;14.90;99.90
8408;DHT22;4241;48.452;9.216;2022-07-18T03:38:32;14.90;99.90
8408;DHT22;4241;48.452;9.216;2022-07-18T03:40:59;15.10;99.90
8408;DHT22;4241;48.452;9.216;2022-07-18T03:43:25;15.00;99.90
8408;DHT22;4241;48.452;9.216;2022-07-18T03:45:52;15.00;99.90
8408;DHT22;4241;48.452;9.216;2022-07-18T03:48:19;15.50;99.90
8408;DHT22;4241;48.452;9.216;2022-07-18T03:50:46;15.30;99.90
8408;DHT22;4241;48.452;9.216;2022-07-18T03:53:13;15.30;99.90
8408;DHT22;4241;48.452;9.216;2022-07-18T03:55:41;15.10;99.90
8408;DHT22;4241;48.452;9.216;2022-07-18T03:58:08;15.10;99.90
8408;DHT22;4241;48.452;9.216;2022-07-18T04:00:35;15.10;99.90
8408;DHT22;4241;48.452;9.216;2022-07-18T04:03:01;15.00;99.90
8408;DHT22;4241;48.452;9.216;2022-07-18T04:05:28;15.10;99.90
8408;DHT22;4241;48.452;9.216;2022-07-18T04:07:55;15.10;99.90
8408;DHT22;4241;48.452;9.216;2022-07-18T04:10:22;15.10;99.90
8408;DHT22;4241;48.452;9.216;2022-07-18T04:12:52;15.30;99.90
8408;DHT22;4241;48.452;9.216;2022-07-18T04:15:20;14.90;99.90
8408;DHT22;4241;48.452;9.216;2022-07-18T04:17:47;14.70;99.90
8408;DHT22;4241;48.452;9.216;2022-07-18T04:20:15;14.60;99.90
8408;DHT22;4241;48.452;9.216;2022-07-18T04:22:47;14.60;99.90
8408;DHT22;4241;48.452;9.216;2022-07-18T04:25:14;15.00;99.90
8408;DHT22;4241;48.452;9.216;2022-07-18T04:27:41;14.90;99.90
8408;DHT22;4241;48.452;9.216;2022-07-18T04:30:09;14.80;99.90
8408;DHT22;4241;48.452;9.216;2022-07-18T04:32:36;14.90;99.90
8408;DHT22;4241;48.452;9.216;2022-07-18T04:35:04;15.10;99.90
8408;DHT22;4241;48.452;9.216;2022-07-18T04:37:31;15.10;99.90
8408;DHT22;4241;48.452;9.216;2022-07-18T04:39:58;15.10;99.90
8408;DHT22;4241;48.452;9.216;2022-07-18T04:42:25;15.00;99.90
8408;DHT22;4241;48.452;9.216;2022-07-18T04:44:52;15.20;99.90
8408;DHT22;4241;48.452;9.216;2022-07-18T04:47:21;15.10;99.90
8408;DHT22;4241;48.452;9.216;2022-07-18T04:49:47;16.00;99.90
8408;DHT22;4241;48.452;9.216;2022-07-18T04:52:14;15.70;99.90
8408;DHT22;4241;48.452;9.216;2022-07-18T04:54:41;15.80;99.90
8408;DHT22;4241;48.452;9.216;2022-07-18T04:57:08;15.50;99.90
8408;DHT22;4241;48.452;9.216;2022-07-18T04:59:36;15.50;99.90
8408;DHT22;4241;48.452;9.216;2022-07-18T05:02:04;15.60;99.90
8408;DHT22;4241;48.452;9.216;2022-07-18T05:04:32;15.50;99.90
8408;DHT22;4241;48.452;9.216;2022-07-18T05:06:59;15.50;99.90
8408;DHT22;4241;48.452;9.216;2022-07-18T05:09:26;15.60;99.90
8408;DHT22;4241;48.452;9.216;2022-07-18T05:11:54;15.70;99.90
8408;DHT22;4241;48.452;9.216;2022-07-18T05:14:20;15.70;99.90
8408;DHT22;4241;48.452;9.216;2022-07-18T05:16:48;15.80;99.90
8408;DHT22;4241;48.452;9.216;2022-07-18T05:19:15;15.70;99.90
8408;DHT22;4241;48.452;9.216;2022-07-18T05:21:43;15.90;99.90
8408;DHT22;4241;48.452;9.216;2022-07-18T05:24:11;15.60;99.90
8408;DHT22;4241;48.452;9.216;2022-07-18T05:26:38;15.70;99.90
8408;DHT22;4241;48.452;9.216;2022-07-18T05:29:05;15.80;99.90
8408;DHT22;4241;48.452;9.216;2022-07-18T05:31:32;15.90;99.90
8408;DHT22;4241;48.452;9.216;2022-07-18T05:33:59;16.00;99.90
8408;DHT22;4241;48.452;9.216;2022-07-18T05:36:26;16.10;99.90
8408;DHT22;4241;48.452;9.216;2022-07-18T05:38:54;16.30;99.90
8408;DHT22;4241;48.452;9.216;2022-07-18T05:41:20;16.30;99.90
8408;DHT22;4241;48.452;9.216;2022-07-18T05:43:47;16.50;99.90
8408;DHT22;4241;48.452;9.216;2022-07-18T05:46:14;16.60;99.90
8408;DHT22;4241;48.452;9.216;2022-07-18T05:48:41;16.80;99.90
8408;DHT22;4241;48.452;9.216;2022-07-18T05:51:08;16.90;99.90
8408;DHT22;4241;48.452;9.216;2022-07-18T05:53:35;16.90;99.90
8408;DHT22;4241;48.452;9.216;2022-07-18T05:56:05;17.00;99.90
8408;DHT22;4241;48.452;9.216;2022-07-18T05:58:32;17.00;99.90
8408;DHT22;4241;48.452;9.216;2022-07-18T06:00:59;17.10;99.90
8408;DHT22;4241;48.452;9.216;2022-07-18T06:03:26;17.30;99.90
8408;DHT22;4241;48.452;9.216;2022-07-18T06:05:52;17.50;99.90
8408;DHT22;4241;48.452;9.216;2022-07-18T06:08:19;17.60;99.90
8408;DHT22;4241;48.452;9.216;2022-07-18T06:10:46;17.70;99.90
8408;DHT22;4241;48.452;9.216;2022-07-18T06:13:14;18.00;99.90
8408;DHT22;4241;48.452;9.216;2022-07-18T06:15:41;18.20;99.90
8408;DHT22;4241;48.452;9.216;2022-07-18T06:18:08;18.40;99.90
8408;DHT22;4241;48.452;9.216;2022-07-18T06:20:35;18.60;99.90
8408;DHT22;4241;48.452;9.216;2022-07-18T06:23:02;18.60;99.90
8408;DHT22;4241;48.452;9.216;2022-07-18T06:25:29;18.70;99.90
8408;DHT22;4241;48.452;9.216;2022-07-18T06:27:56;18.80;97.80
8408;DHT22;4241;48.452;9.216;2022-07-18T06:30:24;19.00;97.60
8408;DHT22;4241;48.452;9.216;2022-07-18T06:32:51;19.40;97.70
8408;DHT22;4241;48.452;9.216;2022-07-18T06:35:18;19.60;98.00
8408;DHT22;4241;48.452;9.216;2022-07-18T06:37:44;19.60;97.70
8408;DHT22;4241;48.452;9.216;2022-07-18T06:40:12;19.70;97.50
8408;DHT22;4241;48.452;9.216;2022-07-18T06:42:39;19.90;97.90
8408;DHT22;4241;48.452;9.216;2022-07-18T06:45:06;20.10;96.20
8408;DHT22;4241;48.452;9.216;2022-07-18T06:47:35;20.20;96.80
8408;DHT22;4241;48.452;9.216;2022-07-18T06:50:02;20.40;96.20
8408;DHT22;4241;48.452;9.216;2022-07-18T06:52:29;20.50;94.50
8408;DHT22;4241;48.452;9.216;2022-07-18T06:54:56;20.70;93.80
8408;DHT22;4241;48.452;9.216;2022-07-18T06:57:22;20.90;94.30
8408;DHT22;4241;48.452;9.216;2022-07-18T06:59:49;21.00;91.30
8408;DHT22;4241;48.452;9.216;2022-07-18T07:02:16;21.20;90.90
8408;DHT22;4241;48.452;9.216;2022-07-18T07:04:44;21.30;90.80
8408;DHT22;4241;48.452;9.216;2022-07-18T07:07:11;21.50;91.40
8408;DHT22;4241;48.452;9.216;2022-07-18T07:09:38;21.50;90.90
8408;DHT22;4241;48.452;9.216;2022-07-18T07:12:05;21.60;90.80
8408;DHT22;4241;48.452;9.216;2022-07-18T07:14:32;21.70;90.80
8408;DHT22;4241;48.452;9.216;2022-07-18T07:16:59;21.80;91.50
8408;DHT22;4241;48.452;9.216;2022-07-18T07:19:26;21.90;91.40
8408;DHT22;4241;48.452;9.216;2022-07-18T07:21:54;22.10;90.40
8408;DHT22;4241;48.452;9.216;2022-07-18T07:24:21;22.20;89.80
8408;DHT22;4241;48.452;9.216;2022-07-18T07:26:48;22.10;88.30
8408;DHT22;4241;48.452;9.216;2022-07-18T07:29:14;22.20;90.00
8408;DHT22;4241;48.452;9.216;2022-07-18T07:31:41;22.50;87.90
8408;DHT22;4241;48.452;9.216;2022-07-18T07:34:09;22.80;88.20
8408;DHT22;4241;48.452;9.216;2022-07-18T07:36:36;23.00;87.50
8408;DHT22;4241;48.452;9.216;2022-07-18T07:39:04;23.10;88.20
8408;DHT22;4241;48.452;9.216;2022-07-18T07:41:32;23.20;85.90
8408;DHT22;4241;48.452;9.216;2022-07-18T07:43:59;23.40;85.50
8408;DHT22;4241;48.452;9.216;2022-07-18T07:46:27;23.90;87.30
8408;DHT22;4241;48.452;9.216;2022-07-18T07:48:53;23.50;84.10
8408;DHT22;4241;48.452;9.216;2022-07-18T07:51:20;23.30;82.20
8408;DHT22;4241;48.452;9.216;2022-07-18T07:53:47;23.70;85.40
8408;DHT22;4241;48.452;9.216;2022-07-18T07:56:15;23.90;81.90
8408;DHT22;4241;48.452;9.216;2022-07-18T07:58:44;24.10;82.20
8408;DHT22;4241;48.452;9.216;2022-07-18T08:01:11;24.10;81.90
8408;DHT22;4241;48.452;9.216;2022-07-18T08:03:40;24.80;82.70
8408;DHT22;4241;48.452;9.216;2022-07-18T08:06:06;24.50;77.50
8408;DHT22;4241;48.452;9.216;2022-07-18T08:08:33;24.70;79.80
8408;DHT22;4241;48.452;9.216;2022-07-18T08:11:00;25.20;78.70
8408;DHT22;4241;48.452;9.216;2022-07-18T08:13:28;25.30;80.80
8408;DHT22;4241;48.452;9.216;2022-07-18T08:15:55;25.00;73.80
8408;DHT22;4241;48.452;9.216;2022-07-18T08:18:22;25.10;75.30
8408;DHT22;4241;48.452;9.216;2022-07-18T08:20:49;25.50;76.30
8408;DHT22;4241;48.452;9.216;2022-07-18T08:23:19;25.70;75.60
8408;DHT22;4241;48.452;9.216;2022-07-18T08:25:46;25.70;73.90
8408;DHT22;4241;48.452;9.216;2022-07-18T08:28:14;26.10;73.50
8408;DHT22;4241;48.452;9.216;2022-07-18T08:30:42;26.10;68.10
8408;DHT22;4241;48.452;9.216;2022-07-18T08:33:09;26.30;70.80
8408;DHT22;4241;48.452;9.216;2022-07-18T08:35:35;26.60;71.60
8408;DHT22;4241;48.452;9.216;2022-07-18T08:38:04;26.80;70.20
8408;DHT22;4241;48.452;9.216;2022-07-18T08:40:31;27.00;67.70
8408;DHT22;4241;48.452;9.216;2022-07-18T08:42:58;27.10;66.20
8408;DHT22;4241;48.452;9.216;2022-07-18T08:45:25;27.20;65.70
8408;DHT22;4241;48.452;9.216;2022-07-18T08:47:54;27.00;63.20
8408;DHT22;4241;48.452;9.216;2022-07-18T08:50:21;27.70;56.80
8408;DHT22;4241;48.452;9.216;2022-07-18T08:52:49;27.50;59.00
8408;DHT22;4241;48.452;9.216;2022-07-18T08:55:16;27.60;63.20
8408;DHT22;4241;48.452;9.216;2022-07-18T08:57:43;27.70;63.50
8408;DHT22;4241;48.452;9.216;2022-07-18T09:00:11;28.00;63.10
8408;DHT22;4241;48.452;9.216;2022-07-18T09:02:38;28.00;60.00
8408;DHT22;4241;48.452;9.216;2022-07-18T09:05:17;28.10;61.60
8408;DHT22;4241;48.452;9.216;2022-07-18T09:07:44;28.80;59.00
8408;DHT22;4241;48.452;9.216;2022-07-18T09:10:11;28.40;59.40
8408;DHT22;4241;48.452;9.216;2022-07-18T09:12:38;28.80;56.50
8408;DHT22;4241;48.452;9.216;2022-07-18T09:15:07;28.90;56.20
8408;DHT22;4241;48.452;9.216;2022-07-18T09:17:35;29.20;56.60
8408;DHT22;4241;48.452;9.216;2022-07-18T09:20:04;29.30;54.90
8408;DHT22;4241;48.452;9.216;2022-07-18T09:22:35;29.30;54.40
8408;DHT22;4241;48.452;9.216;2022-07-18T09:25:05;29.60;53.50
8408;DHT22;4241;48.452;9.216;2022-07-18T09:27:35;30.00;56.30
8408;DHT22;4241;48.452;9.216;2022-07-18T09:30:24;30.20;52.80
8408;DHT22;4241;48.452;9.216;2022-07-18T09:32:54;29.90;54.00
8408;DHT22;4241;48.452;9.216;2022-07-18T09:35:24;30.50;53.00
8408;DHT22;4241;48.452;9.216;2022-07-18T09:37:58;30.20;52.30
8408;DHT22;4241;48.452;9.216;2022-07-18T09:40:29;30.60;50.10
8408;DHT22;4241;48.452;9.216;2022-07-18T09:42:59;30.30;53.70
8408;DHT22;4241;48.452;9.216;2022-07-18T09:45:28;30.20;53.60
8408;DHT22;4241;48.452;9.216;2022-07-18T09:47:57;30.10;51.60
8408;DHT22;4241;48.452;9.216;2022-07-18T09:50:31;30.40;50.40
8408;DHT22;4241;48.452;9.216;2022-07-18T09:53:11;30.60;52.30
8408;DHT22;4241;48.452;9.216;2022-07-18T09:55:46;31.10;50.40
8408;DHT22;4241;48.452;9.216;2022-07-18T09:58:16;30.50;51.20
8408;DHT22;4241;48.452;9.216;2022-07-18T10:00:43;30.80;53.80
8408;DHT22;4241;48.452;9.216;2022-07-18T10:03:10;31.30;52.10
8408;DHT22;4241;48.452;9.216;2022-07-18T10:05:38;31.50;53.40
8408;DHT22;4241;48.452;9.216;2022-07-18T10:08:08;31.50;52.20
8408;DHT22;4241;48.452;9.216;2022-07-18T10:10:36;30.50;52.10
8408;DHT22;4241;48.452;9.216;2022-07-18T10:13:05;30.70;54.20
8408;DHT22;4241;48.452;9.216;2022-07-18T10:15:34;31.10;51.70
8408;DHT22;4241;48.452;9.216;2022-07-18T10:18:02;31.30;52.70
8408;DHT22;4241;48.452;9.216;2022-07-18T10:20:33;30.90;49.80
8408;DHT22;4241;48.452;9.216;2022-07-18T10:23:08;31.00;51.00
8408;DHT22;4241;48.452;9.216;2022-07-18T10:25:36;31.10;51.30
8408;DHT22;4241;48.452;9.216;2022-07-18T10:28:06;30.70;43.20
8408;DHT22;4241;48.452;9.216;2022-07-18T10:30:39;30.70;44.50
8408;DHT22;4241;48.452;9.216;2022-07-18T10:33:38;31.20;46.00
8408;DHT22;4241;48.452;9.216;2022-07-18T10:36:08;31.10;42.10
8408;DHT22;4241;48.452;9.216;2022-07-18T10:38:37;31.50;42.50
8408;DHT22;4241;48.452;9.216;2022-07-18T10:41:09;31.90;43.70
8408;DHT22;4241;48.452;9.216;2022-07-18T10:43:45;32.30;42.90
8408;DHT22;4241;48.452;9.216;2022-07-18T10:46:13;32.10;44.20
8408;DHT22;4241;48.452;9.216;2022-07-18T10:48:56;32.00;43.20
8408;DHT22;4241;48.452;9.216;2022-07-18T10:51:34;32.30;43.80
8408;DHT22;4241;48.452;9.216;2022-07-18T10:54:10;32.40;41.50
8408;DHT22;4241;48.452;9.216;2022-07-18T10:57:09;32.10;42.80
8408;DHT22;4241;48.452;9.216;2022-07-18T10:59:58;32.30;43.80
8408;DHT22;4241;48.452;9.216;2022-07-18T11:02:32;32.80;44.40
8408;DHT22;4241;48.452;9.216;2022-07-18T11:04:59;32.60;43.40
8408;DHT22;4241;48.452;9.216;2022-07-18T11:07:26;32.70;42.70
8408;DHT22;4241;48.452;9.216;2022-07-18T11:09:55;32.90;42.60
8408;DHT22;4241;48.452;9.216;2022-07-18T11:12:24;32.60;41.40
8408;DHT22;4241;48.452;9.216;2022-07-18T11:15:03;32.30;38.90
8408;DHT22;4241;48.452;9.216;2022-07-18T11:17:59;31.80;41.80
8408;DHT22;4241;48.452;9.216;2022-07-18T11:20:40;32.50;41.90
8408;DHT22;4241;48.452;9.216;2022-07-18T11:23:19;32.60;40.20
8408;DHT22;4241;48.452;9.216;2022-07-18T11:25:49;32.90;42.60
8408;DHT22;4241;48.452;9.216;2022-07-18T11:28:17;33.00;40.90
8408;DHT22;4241;48.452;9.216;2022-07-18T11:30:59;32.80;42.30
8408;DHT22;4241;48.452;9.216;2022-07-18T11:33:28;32.80;40.00
8408;DHT22;4241;48.452;9.216;2022-07-18T11:36:03;32.90;41.10
8408;DHT22;4241;48.452;9.216;2022-07-18T11:38:30;32.90;38.80
8408;DHT22;4241;48.452;9.216;2022-07-18T11:40:58;32.90;39.50
8408;DHT22;4241;48.452;9.216;2022-07-18T11:43:26;32.50;40.40
8408;DHT22;4241;48.452;9.216;2022-07-18T11:46:03;32.80;39.50
8408;DHT22;4241;48.452;9.216;2022-07-18T11:48:31;32.80;42.30
8408;DHT22;4241;48.452;9.216;2022-07-18T11:50:58;33.00;41.40
8408;DHT22;4241;48.452;9.216;2022-07-18T11:53:26;33.10;40.30
8408;DHT22;4241;48.452;9.216;2022-07-18T11:55:54;33.20;39.90
8408;DHT22;4241;48.452;9.216;2022-07-18T11:58:22;33.60;38.90
8408;DHT22;4241;48.452;9.216;2022-07-18T12:00:49;33.30;39.00
8408;DHT22;4241;48.452;9.216;2022-07-18T12:03:18;33.80;38.30
8408;DHT22;4241;48.452;9.216;2022-07-18T12:05:47;33.50;38.80
8408;DHT22;4241;48.452;9.216;2022-07-18T12:08:31;33.60;39.70
8408;DHT22;4241;48.452;9.216;2022-07-18T12:11:10;33.90;38.30
8408;DHT22;4241;48.452;9.216;2022-07-18T12:13:47;34.20;39.50
8408;DHT22;4241;48.452;9.216;2022-07-18T12:16:34;34.20;39.90
8408;DHT22;4241;48.452;9.216;2022-07-18T12:19:04;34.80;38.70
8408;DHT22;4241;48.452;9.216;2022-07-18T12:21:44;33.50;38.00
8408;DHT22;4241;48.452;9.216;2022-07-18T12:24:24;33.90;37.70
8408;DHT22;4241;48.452;9.216;2022-07-18T12:27:07;33.30;38.30
8408;DHT22;4241;48.452;9.216;2022-07-18T12:30:00;33.90;38.40
8408;DHT22;4241;48.452;9.216;2022-07-18T12:32:30;34.10;39.60
8408;DHT22;4241;48.452;9.216;2022-07-18T12:34:59;34.40;38.50
8408;DHT22;4241;48.452;9.216;2022-07-18T12:37:28;34.20;37.00
8408;DHT22;4241;48.452;9.216;2022-07-18T12:39:59;34.00;36.00
8408;DHT22;4241;48.452;9.216;2022-07-18T12:42:30;33.60;36.80
8408;DHT22;4241;48.452;9.216;2022-07-18T12:44:59;33.10;37.20
8408;DHT22;4241;48.452;9.216;2022-07-18T12:47:27;33.50;36.70
8408;DHT22;4241;48.452;9.216;2022-07-18T12:49:54;33.60;35.80
8408;DHT22;4241;48.452;9.216;2022-07-18T12:52:21;33.60;39.90
8408;DHT22;4241;48.452;9.216;2022-07-18T12:54:49;34.00;38.60
8408;DHT22;4241;48.452;9.216;2022-07-18T12:57:17;33.80;36.40
8408;DHT22;4241;48.452;9.216;2022-07-18T12:59:45;34.10;38.50
8408;DHT22;4241;48.452;9.216;2022-07-18T13:02:14;34.50;38.20
8408;DHT22;4241;48.452;9.216;2022-07-18T13:04:41;34.40;39.60
8408;DHT22;4241;48.452;9.216;2022-07-18T13:07:08;34.70;37.60
8408;DHT22;4241;48.452;9.216;2022-07-18T13:09:35;34.80;39.30
8408;DHT22;4241;48.452;9.216;2022-07-18T13:12:03;34.60;36.80
8408;DHT22;4241;48.452;9.216;2022-07-18T13:14:30;34.70;39.80
8408;DHT22;4241;48.452;9.216;2022-07-18T13:16:57;34.90;39.70
8408;DHT22;4241;48.452;9.216;2022-07-18T13:19:25;34.60;38.50
8408;DHT22;4241;48.452;9.216;2022-07-18T13:21:52;35.20;36.60
8408;DHT22;4241;48.452;9.216;2022-07-18T13:24:19;35.30;37.80
8408;DHT22;4241;48.452;9.216;2022-07-18T13:26:46;35.30;38.30
8408;DHT22;4241;48.452;9.216;2022-07-18T13:29:13;35.10;35.70
8408;DHT22;4241;48.452;9.216;2022-07-18T13:31:39;34.60;39.10
8408;DHT22;4241;48.452;9.216;2022-07-18T13:34:06;34.50;38.00
8408;DHT22;4241;48.452;9.216;2022-07-18T13:36:34;34.70;37.40
8408;DHT22;4241;48.452;9.216;2022-07-18T13:39:01;34.90;38.80
8408;DHT22;4241;48.452;9.216;2022-07-18T13:41:29;35.30;38.70
8408;DHT22;4241;48.452;9.216;2022-07-18T13:43:56;35.20;39.50
8408;DHT22;4241;48.452;9.216;2022-07-18T13:46:23;35.10;38.00
8408;DHT22;4241;48.452;9.216;2022-07-18T13:48:49;35.00;36.10
8408;DHT22;4241;48.452;9.216;2022-07-18T13:51:16;34.60;38.00
8408;DHT22;4241;48.452;9.216;2022-07-18T13:53:45;34.80;38.50
8408;DHT22;4241;48.452;9.216;2022-07-18T13:56:12;34.40;37.10
8408;DHT22;4241;48.452;9.216;2022-07-18T13:58:39;34.80;39.70
8408;DHT22;4241;48.452;9.216;2022-07-18T14:01:06;35.10;37.30
8408;DHT22;4241;48.452;9.216;2022-07-18T14:03:33;35.00;38.70
8408;DHT22;4241;48.452;9.216;2022-07-18T14:06:00;34.70;37.90
8408;DHT22;4241;48.452;9.216;2022-07-18T14:08:27;34.60;38.20
8408;DHT22;4241;48.452;9.216;2022-07-18T14:10:55;34.90;39.40
8408;DHT22;4241;48.452;9.216;2022-07-18T14:13:22;34.50;37.80
8408;DHT22;4241;48.452;9.216;2022-07-18T14:15:49;34.30;36.50
8408;DHT22;4241;48.452;9.216;2022-07-18T14:18:16;34.40;40.40
8408;DHT22;4241;48.452;9.216;2022-07-18T14:20:43;35.10;39.00
8408;DHT22;4241;48.452;9.216;2022-07-18T14:23:10;35.20;39.10
8408;DHT22;4241;48.452;9.216;2022-07-18T14:25:37;35.30;39.30
8408;DHT22;4241;48.452;9.216;2022-07-18T14:28:05;35.20;36.30
8408;DHT22;4241;48.452;9.216;2022-07-18T14:30:32;34.20;38.80
8408;DHT22;4241;48.452;9.216;2022-07-18T14:32:59;34.70;39.60
8408;DHT22;4241;48.452;9.216;2022-07-18T14:35:26;34.70;38.40
8408;DHT22;4241;48.452;9.216;2022-07-18T14:37:53;34.80;40.20
8408;DHT22;4241;48.452;9.216;2022-07-18T14:40:20;34.80;38.00
8408;DHT22;4241;48.452;9.216;2022-07-18T14:42:47;34.70;39.70
8408;DHT22;4241;48.452;9.216;2022-07-18T14:45:15;34.60;38.80
8408;DHT22;4241;48.452;9.216;2022-07-18T14:47:42;34.60;39.70
8408;DHT22;4241;48.452;9.216;2022-07-18T14:50:09;34.30;40.00
8408;DHT22;4241;48.452;9.216;2022-07-18T14:52:36;34.60;42.70
8408;DHT22;4241;48.452;9.216;2022-07-18T14:55:04;35.10;39.80
8408;DHT22;4241;48.452;9.216;2022-07-18T14:57:31;34.70;40.10
8408;DHT22;4241;48.452;9.216;2022-07-18T14:59:58;34.90;41.30
8408;DHT22;4241;48.452;9.216;2022-07-18T15:02:27;35.00;40.00
8408;DHT22;4241;48.452;9.216;2022-07-18T15:04:53;35.10;38.20
8408;DHT22;4241;48.452;9.216;2022-07-18T15:07:20;34.80;39.80
8408;DHT22;4241;48.452;9.216;2022-07-18T15:09:47;34.50;40.40
8408;DHT22;4241;48.452;9.216;2022-07-18T15:12:14;34.40;39.10
8408;DHT22;4241;48.452;9.216;2022-07-18T15:14:41;34.70;41.90
8408;DHT22;4241;48.452;9.216;2022-07-18T15:17:08;34.90;41.30
8408;DHT22;4241;48.452;9.216;2022-07-18T15:19:36;35.00;41.60
8408;DHT22;4241;48.452;9.216;2022-07-18T15:22:03;34.30;39.70
8408;DHT22;4241;48.452;9.216;2022-07-18T15:24:31;34.20;40.60
8408;DHT22;4241;48.452;9.216;2022-07-18T15:26:57;33.80;40.40
8408;DHT22;4241;48.452;9.216;2022-07-18T15:29:24;34.80;41.50
8408;DHT22;4241;48.452;9.216;2022-07-18T15:31:51;35.00;41.40
8408;DHT22;4241;48.452;9.216;2022-07-18T15:34:18;35.30;40.20
8408;DHT22;4241;48.452;9.216;2022-07-18T15:36:46;35.20;40.00
8408;DHT22;4241;48.452;9.216;2022-07-18T15:39:13;35.30;39.90
8408;DHT22;4241;48.452;9.216;2022-07-18T15:41:40;35.80;40.10
8408;DHT22;4241;48.452;9.216;2022-07-18T15:44:08;35.00;37.60
8408;DHT22;4241;48.452;9.216;2022-07-18T15:46:35;34.90;37.30
8408;DHT22;4241;48.452;9.216;2022-07-18T15:49:02;35.10;38.30
8408;DHT22;4241;48.452;9.216;2022-07-18T15:51:29;35.30;38.70
8408;DHT22;4241;48.452;9.216;2022-07-18T15:53:57;35.10;37.10
8408;DHT22;4241;48.452;9.216;2022-07-18T15:56:24;35.10;37.70
8408;DHT22;4241;48.452;9.216;2022-07-18T15:58:51;35.70;36.90
8408;DHT22;4241;48.452;9.216;2022-07-18T16:01:26;35.50;35.90
8408;DHT22;4241;48.452;9.216;2022-07-18T16:03:53;35.50;37.40
8408;DHT22;4241;48.452;9.216;2022-07-18T16:06:19;35.30;36.80
8408;DHT22;4241;48.452;9.216;2022-07-18T16:08:46;35.20;37.70
8408;DHT22;4241;48.452;9.216;2022-07-18T16:11:15;35.70;37.80